Time;durP1;ratioP1;P1;durP2;ratioP2;P2;SDS_P1;SDS_P2;PMS_P1;PMS_P2;Temp;Humidity;BMP_temperature;BMP_pressure;BME280_temperature;BME280_humidity;BME280_pressure;Samples;Min_cycle;Max_cycle;Signal;HPM_P1;HPM_P2
2023/05/14 00:00:27;;;;;;;;;;;10.90;99.90;;;;;;5056863;28;19924;-64
2023/05/14 00:02:58;;;;;;;;;;;10.90;99.90;;;;;;5056921;28;19951;-64
2023/05/14 00:05:30;;;;;;;;;;;10.90;99.90;;;;;;5057873;28;19999;-63
2023/05/14 00:08:02;;;;;;;;;;;10.90;99.90;;;;;;5067204;28;20414;-64
2023/05/14 00:10:33;;;;;;;;;;;10.90;99.90;;;;;;5054545;28;20400;-63
2023/05/14 00:13:05;;;;;;;;;;;11.00;99.90;;;;;;5055542;28;19971;-64
2023/05/14 00:15:37;;;;;;;;;;;11.00;99.90;;;;;;5060917;28;19929;-63
2023/05/14 00:18:11;;;;;;;;;;;11.00;99.90;;;;;;5057994;28;19977;-63
2023/05/14 00:20:42;;;;;;;;;;;11.00;99.90;;;;;;5058389;28;19928;-64
2023/05/14 00:23:14;;;;;;;;;;;11.00;99.90;;;;;;5057440;28;20389;-63
2023/05/14 00:25:45;;;;;;;;;;;11.10;99.90;;;;;;5056630;28;19947;-64
2023/05/14 00:28:17;;;;;;;;;;;11.10;99.90;;;;;;5056820;28;19932;-64
2023/05/14 00:30:49;;;;;;;;;;;11.10;99.90;;;;;;5056821;28;20005;-63
2023/05/14 00:33:21;;;;;;;;;;;11.10;99.90;;;;;;5054552;28;19929;-64
2023/05/14 00:35:53;;;;;;;;;;;11.10;99.90;;;;;;5052303;28;19971;-64
2023/05/14 00:38:26;;;;;;;;;;;11.20;99.90;;;;;;5057828;28;20364;-63
2023/05/14 00:40:58;;;;;;;;;;;11.20;99.90;;;;;;5057052;28;19929;-64
2023/05/14 00:43:32;;;;;;;;;;;11.20;99.90;;;;;;5040599;28;19959;-64
2023/05/14 00:46:03;;;;;;;;;;;11.20;99.90;;;;;;5040184;28;19936;-64
2023/05/14 00:48:35;;;;;;;;;;;11.20;99.90;;;;;;5057523;28;19932;-66
2023/05/14 00:51:07;;;;;;;;;;;11.20;99.90;;;;;;5062968;28;19932;-63
2023/05/14 00:53:38;;;;;;;;;;;11.20;99.90;;;;;;5052214;28;19933;-64
2023/05/14 00:56:10;;;;;;;;;;;11.20;99.90;;;;;;5054322;28;20306;-64
2023/05/14 00:58:42;;;;;;;;;;;11.20;99.90;;;;;;5052688;28;19924;-63
2023/05/14 01:01:15;;;;;;;;;;;11.20;99.90;;;;;;5057450;28;19925;-63
2023/05/14 01:03:47;;;;;;;;;;;11.20;99.90;;;;;;5055847;28;19989;-64
2023/05/14 01:06:25;;;;;;;;;;;11.20;99.90;;;;;;5058190;28;19924;-64
2023/05/14 01:09:05;;;;;;;;;;;11.20;99.90;;;;;;5056063;28;19928;-63
2023/05/14 01:11:42;;;;;;;;;;;11.20;99.90;;;;;;5061740;28;19925;-64
2023/05/14 01:14:20;;;;;;;;;;;11.20;99.90;;;;;;5064083;28;19935;-63
2023/05/14 01:16:49;;;;;;;;;;;11.10;99.90;;;;;;5057048;28;19955;-63
2023/05/14 01:19:32;;;;;;;;;;;11.10;99.90;;;;;;5058045;28;19964;-63
2023/05/14 01:21:58;;;;;;;;;;;11.10;99.90;;;;;;5059645;28;19929;-63
2023/05/14 01:24:30;;;;;;;;;;;11.10;99.90;;;;;;5059130;28;19924;-63
2023/05/14 01:27:09;;;;;;;;;;;11.20;99.90;;;;;;5058728;28;19994;-63
2023/05/14 01:29:44;;;;;;;;;;;11.10;99.90;;;;;;5061328;28;20623;-64
2023/05/14 01:32:16;;;;;;;;;;;11.10;99.90;;;;;;5059852;28;19924;-63
2023/05/14 01:34:49;;;;;;;;;;;11.10;99.90;;;;;;5057784;28;19924;-64
2023/05/14 01:37:21;;;;;;;;;;;11.10;99.90;;;;;;5061502;28;19932;-63
2023/05/14 01:39:54;;;;;;;;;;;11.10;99.90;;;;;;5060662;28;20055;-64
2023/05/14 01:42:27;;;;;;;;;;;11.10;99.90;;;;;;5056650;28;19935;-63
2023/05/14 01:44:54;;;;;;;;;;;11.10;99.90;;;;;;5056461;28;19924;-63
2023/05/14 01:47:26;;;;;;;;;;;11.10;99.90;;;;;;5066114;28;19947;-63
2023/05/14 01:49:53;;;;;;;;;;;11.00;99.90;;;;;;5055974;28;19929;-63
2023/05/14 01:52:25;;;;;;;;;;;11.00;99.90;;;;;;5064100;28;19928;-64
2023/05/14 01:54:57;;;;;;;;;;;11.00;99.90;;;;;;5056948;28;19929;-64
2023/05/14 01:57:23;;;;;;;;;;;11.00;99.90;;;;;;5059818;28;19925;-63
2023/05/14 01:59:55;;;;;;;;;;;11.00;99.90;;;;;;5053034;28;19924;-63
2023/05/14 02:02:28;;;;;;;;;;;11.00;99.90;;;;;;5060427;28;19968;-63
2023/05/14 02:05:00;;;;;;;;;;;11.00;99.90;;;;;;5063379;28;19982;-63
2023/05/14 02:07:31;;;;;;;;;;;11.00;99.90;;;;;;5051867;28;20546;-64
2023/05/14 02:10:03;;;;;;;;;;;11.00;99.90;;;;;;5060159;28;19932;-63
2023/05/14 02:12:35;;;;;;;;;;;11.00;99.90;;;;;;5067790;28;19935;-63
2023/05/14 02:15:09;;;;;;;;;;;11.00;99.90;;;;;;5060439;28;19928;-64
2023/05/14 02:17:36;;;;;;;;;;;10.90;99.90;;;;;;5046121;28;19928;-64
2023/05/14 02:20:10;;;;;;;;;;;10.90;99.90;;;;;;5077802;28;19933;-63
2023/05/14 02:22:44;;;;;;;;;;;11.00;99.90;;;;;;5058821;28;19932;-64
2023/05/14 02:25:16;;;;;;;;;;;10.90;99.90;;;;;;5059685;28;20023;-63
2023/05/14 02:27:48;;;;;;;;;;;11.00;99.90;;;;;;5063371;28;19929;-63
2023/05/14 02:30:20;;;;;;;;;;;10.90;99.90;;;;;;5060523;28;19928;-64
2023/05/14 02:32:52;;;;;;;;;;;11.00;99.90;;;;;;5057868;28;20019;-64
2023/05/14 02:35:19;;;;;;;;;;;10.90;99.90;;;;;;5069249;28;19924;-64
2023/05/14 02:37:51;;;;;;;;;;;10.90;99.90;;;;;;5056130;28;19925;-64
2023/05/14 02:40:23;;;;;;;;;;;10.90;99.90;;;;;;5067504;28;19931;-63
2023/05/14 02:42:54;;;;;;;;;;;10.90;99.90;;;;;;5058434;28;19932;-63
2023/05/14 02:45:21;;;;;;;;;;;10.90;99.90;;;;;;5066279;28;20495;-64
2023/05/14 02:47:53;;;;;;;;;;;10.90;99.90;;;;;;5057960;28;19928;-63
2023/05/14 02:50:25;;;;;;;;;;;10.90;99.90;;;;;;5060471;28;19924;-63
2023/05/14 02:52:56;;;;;;;;;;;10.90;99.90;;;;;;5059589;28;20444;-64
2023/05/14 02:55:28;;;;;;;;;;;10.90;99.90;;;;;;5061406;28;19971;-64
2023/05/14 02:58:00;;;;;;;;;;;11.00;99.90;;;;;;5060713;28;19967;-64
2023/05/14 03:00:32;;;;;;;;;;;11.00;99.90;;;;;;5067475;28;19974;-63
2023/05/14 03:03:03;;;;;;;;;;;11.00;99.90;;;;;;5066490;28;19925;-64
2023/05/14 03:05:35;;;;;;;;;;;10.90;99.90;;;;;;5055445;28;19931;-63
2023/05/14 03:08:07;;;;;;;;;;;10.90;99.90;;;;;;5040764;28;20011;-64
2023/05/14 03:10:39;;;;;;;;;;;10.90;99.90;;;;;;5059470;28;20491;-63
2023/05/14 03:13:11;;;;;;;;;;;10.90;99.90;;;;;;5060001;28;19994;-63
2023/05/14 03:15:43;;;;;;;;;;;11.00;99.90;;;;;;5058392;28;19978;-64
2023/05/14 03:18:15;;;;;;;;;;;10.90;99.90;;;;;;5058156;28;19924;-64
2023/05/14 03:20:46;;;;;;;;;;;11.00;99.90;;;;;;5056179;28;19979;-64
2023/05/14 03:23:13;;;;;;;;;;;10.90;99.90;;;;;;5057660;28;19924;-64
2023/05/14 03:25:45;;;;;;;;;;;11.00;99.90;;;;;;5053880;28;20321;-64
2023/05/14 03:28:17;;;;;;;;;;;10.90;99.90;;;;;;5059199;28;19978;-63
2023/05/14 03:30:49;;;;;;;;;;;11.00;99.90;;;;;;5055093;28;20415;-64
2023/05/14 03:33:21;;;;;;;;;;;10.90;99.90;;;;;;5067300;28;19928;-64
2023/05/14 03:35:53;;;;;;;;;;;11.00;99.90;;;;;;5064803;28;19978;-64
2023/05/14 03:38:24;;;;;;;;;;;10.90;99.90;;;;;;5059300;28;19931;-64
2023/05/14 03:40:56;;;;;;;;;;;10.90;99.90;;;;;;5057133;28;19924;-63
2023/05/14 03:43:28;;;;;;;;;;;10.90;99.90;;;;;;5059582;28;19925;-63
2023/05/14 03:46:00;;;;;;;;;;;10.80;99.90;;;;;;5070025;28;19936;-63
2023/05/14 03:48:31;;;;;;;;;;;10.80;99.90;;;;;;5063289;28;20364;-64
2023/05/14 03:51:03;;;;;;;;;;;10.80;99.90;;;;;;5036681;28;19924;-63
2023/05/14 03:53:35;;;;;;;;;;;10.80;99.90;;;;;;5052362;28;20371;-64
2023/05/14 03:56:07;;;;;;;;;;;10.70;99.90;;;;;;5060146;28;19924;-63
2023/05/14 03:58:39;;;;;;;;;;;10.70;99.90;;;;;;5042866;28;19936;-63
2023/05/14 04:01:11;;;;;;;;;;;10.70;99.90;;;;;;5056636;28;20297;-63
2023/05/14 04:03:42;;;;;;;;;;;10.70;99.90;;;;;;5073762;28;19932;-64
2023/05/14 04:06:15;;;;;;;;;;;10.70;99.90;;;;;;5054183;28;20340;-64
2023/05/14 04:08:46;;;;;;;;;;;10.70;99.90;;;;;;5054360;28;19970;-63
2023/05/14 04:11:18;;;;;;;;;;;10.60;99.90;;;;;;5052534;28;19932;-63
2023/05/14 04:13:50;;;;;;;;;;;10.70;99.90;;;;;;5051382;28;19928;-64
2023/05/14 04:16:21;;;;;;;;;;;10.60;99.90;;;;;;5051918;28;19933;-63
2023/05/14 04:18:53;;;;;;;;;;;10.60;99.90;;;;;;5060486;28;20031;-64
2023/05/14 04:21:25;;;;;;;;;;;10.60;99.90;;;;;;5058343;28;19928;-63
2023/05/14 04:23:56;;;;;;;;;;;10.60;99.90;;;;;;5060924;28;19938;-63
2023/05/14 04:26:28;;;;;;;;;;;10.60;99.90;;;;;;5060764;28;19978;-63
2023/05/14 04:29:01;;;;;;;;;;;10.60;99.90;;;;;;5061867;28;19928;-64
2023/05/14 04:31:33;;;;;;;;;;;10.60;99.90;;;;;;5055674;28;19978;-63
2023/05/14 04:34:05;;;;;;;;;;;10.60;99.90;;;;;;5059886;28;19925;-63
2023/05/14 04:36:37;;;;;;;;;;;10.60;99.90;;;;;;5059599;28;20011;-63
2023/05/14 04:39:08;;;;;;;;;;;10.70;99.90;;;;;;5057419;28;19973;-63
2023/05/14 04:41:41;;;;;;;;;;;10.70;99.90;;;;;;5060450;28;19925;-64
2023/05/14 04:44:13;;;;;;;;;;;10.60;99.90;;;;;;5061062;28;19932;-63
2023/05/14 04:46:44;;;;;;;;;;;10.70;99.90;;;;;;5060875;28;19928;-63
2023/05/14 04:49:16;;;;;;;;;;;10.70;99.90;;;;;;5060695;28;19924;-63
2023/05/14 04:51:48;;;;;;;;;;;10.70;99.90;;;;;;5059470;28;19925;-63
2023/05/14 04:54:20;;;;;;;;;;;10.70;99.90;;;;;;5059465;28;19924;-63
2023/05/14 04:56:53;;;;;;;;;;;10.70;99.90;;;;;;5060234;28;19987;-63
2023/05/14 04:59:25;;;;;;;;;;;10.80;99.90;;;;;;5060443;28;19929;-63
2023/05/14 05:01:57;;;;;;;;;;;10.70;99.90;;;;;;5059160;28;19928;-64
2023/05/14 05:04:28;;;;;;;;;;;10.70;99.90;;;;;;5065975;28;19932;-63
2023/05/14 05:07:00;;;;;;;;;;;10.70;99.90;;;;;;5057520;28;20405;-63
2023/05/14 05:09:32;;;;;;;;;;;10.80;99.90;;;;;;5059084;28;19929;-63
2023/05/14 05:12:04;;;;;;;;;;;10.80;99.90;;;;;;5058686;28;19929;-63
2023/05/14 05:14:35;;;;;;;;;;;10.80;99.90;;;;;;5059157;28;19925;-63
2023/05/14 05:17:07;;;;;;;;;;;10.80;99.90;;;;;;5058275;28;19970;-63
2023/05/14 05:19:38;;;;;;;;;;;10.80;99.90;;;;;;5059275;28;19928;-63
2023/05/14 05:22:10;;;;;;;;;;;10.80;99.90;;;;;;5057906;28;19929;-64
2023/05/14 05:24:42;;;;;;;;;;;10.80;99.90;;;;;;5052911;28;19928;-63
2023/05/14 05:27:14;;;;;;;;;;;10.80;99.90;;;;;;5057049;28;19978;-63
2023/05/14 05:29:45;;;;;;;;;;;10.80;99.90;;;;;;5060149;28;19929;-64
2023/05/14 05:32:17;;;;;;;;;;;10.80;99.90;;;;;;5058267;28;19928;-63
2023/05/14 05:34:50;;;;;;;;;;;10.90;99.90;;;;;;5060105;28;19973;-63
2023/05/14 05:37:22;;;;;;;;;;;10.90;99.90;;;;;;5058880;28;19932;-63
2023/05/14 05:39:54;;;;;;;;;;;10.90;99.90;;;;;;5057858;28;20472;-63
2023/05/14 05:42:26;;;;;;;;;;;10.90;99.90;;;;;;5058064;28;19924;-63
2023/05/14 05:44:57;;;;;;;;;;;10.90;99.90;;;;;;5061322;28;19928;-64
2023/05/14 05:47:29;;;;;;;;;;;10.90;99.90;;;;;;5063466;28;20073;-63
2023/05/14 05:49:56;;;;;;;;;;;10.90;99.90;;;;;;5061512;28;19970;-63
2023/05/14 05:52:28;;;;;;;;;;;10.90;99.90;;;;;;5060394;28;19931;-63
2023/05/14 05:54:59;;;;;;;;;;;10.90;99.90;;;;;;5054195;28;20518;-63
2023/05/14 05:57:31;;;;;;;;;;;11.00;99.90;;;;;;5061986;28;19936;-63
2023/05/14 06:00:12;;;;;;;;;;;11.00;99.90;;;;;;5062626;28;20278;-63
2023/05/14 06:02:44;;;;;;;;;;;11.00;99.90;;;;;;5071593;28;20550;-64
2023/05/14 06:05:16;;;;;;;;;;;11.00;99.90;;;;;;5062652;28;19978;-64
2023/05/14 06:07:48;;;;;;;;;;;11.10;99.90;;;;;;5062430;28;19932;-63
2023/05/14 06:10:19;;;;;;;;;;;11.10;99.90;;;;;;5062978;28;19954;-63
2023/05/14 06:12:51;;;;;;;;;;;11.10;99.90;;;;;;5046244;28;20451;-63
2023/05/14 06:15:23;;;;;;;;;;;11.10;99.90;;;;;;5062859;28;19933;-63
2023/05/14 06:17:54;;;;;;;;;;;11.10;99.90;;;;;;5058241;28;19925;-63
2023/05/14 06:20:26;;;;;;;;;;;11.10;99.90;;;;;;5060319;28;20434;-63
2023/05/14 06:22:58;;;;;;;;;;;11.20;99.90;;;;;;5057339;28;19990;-63
2023/05/14 06:25:29;;;;;;;;;;;11.20;99.90;;;;;;5057129;28;19925;-64
2023/05/14 06:28:01;;;;;;;;;;;11.20;99.90;;;;;;5059295;28;19929;-63
2023/05/14 06:30:33;;;;;;;;;;;11.20;99.90;;;;;;5056854;28;19932;-63
2023/05/14 06:33:04;;;;;;;;;;;11.20;99.90;;;;;;5059361;28;19928;-60
2023/05/14 06:35:36;;;;;;;;;;;11.20;99.90;;;;;;5062283;28;20393;-60
2023/05/14 06:38:08;;;;;;;;;;;11.20;99.90;;;;;;5069055;28;19925;-63
2023/05/14 06:40:39;;;;;;;;;;;11.20;99.90;;;;;;5058112;28;19976;-63
2023/05/14 06:43:06;;;;;;;;;;;11.20;99.90;;;;;;5056502;28;19979;-63
2023/05/14 06:45:38;;;;;;;;;;;11.20;99.90;;;;;;5058240;28;19929;-63
2023/05/14 06:48:09;;;;;;;;;;;11.10;99.90;;;;;;5055461;28;19964;-63
2023/05/14 06:50:41;;;;;;;;;;;11.10;99.90;;;;;;5061187;28;19947;-65
2023/05/14 06:53:15;;;;;;;;;;;11.20;99.90;;;;;;5059419;28;19981;-63
2023/05/14 06:55:47;;;;;;;;;;;11.20;99.90;;;;;;5053517;28;20356;-64
2023/05/14 06:58:19;;;;;;;;;;;11.20;99.90;;;;;;5057557;28;19931;-63
2023/05/14 07:00:50;;;;;;;;;;;11.20;99.90;;;;;;5055272;28;20678;-63
2023/05/14 07:03:22;;;;;;;;;;;11.30;99.90;;;;;;5039688;28;20351;-63
2023/05/14 07:05:54;;;;;;;;;;;11.30;99.90;;;;;;5057898;28;19947;-63
2023/05/14 07:08:25;;;;;;;;;;;11.40;99.90;;;;;;5059760;28;19928;-63
2023/05/14 07:10:57;;;;;;;;;;;11.40;99.90;;;;;;5057507;28;19929;-64
2023/05/14 07:13:29;;;;;;;;;;;11.50;99.90;;;;;;5056648;28;19982;-63
2023/05/14 07:16:00;;;;;;;;;;;11.50;99.90;;;;;;5055629;28;19932;-63
2023/05/14 07:18:27;;;;;;;;;;;11.50;99.90;;;;;;5057977;28;19928;-63
2023/05/14 07:20:59;;;;;;;;;;;11.50;99.90;;;;;;5058417;28;20001;-63
2023/05/14 07:23:31;;;;;;;;;;;11.50;99.90;;;;;;5055287;28;20632;-63
2023/05/14 07:25:58;;;;;;;;;;;11.60;99.90;;;;;;5055860;28;19975;-64
2023/05/14 07:28:30;;;;;;;;;;;11.60;99.90;;;;;;5054347;28;19925;-63
2023/05/14 07:31:07;;;;;;;;;;;11.50;99.90;;;;;;5061500;28;19932;-66
2023/05/14 07:33:39;;;;;;;;;;;11.50;99.90;;;;;;5064180;28;20465;-66
2023/05/14 07:36:06;;;;;;;;;;;11.50;99.90;;;;;;5057320;28;20431;-64
2023/05/14 07:38:38;;;;;;;;;;;11.50;99.90;;;;;;5056868;28;19974;-63
2023/05/14 07:41:11;;;;;;;;;;;11.50;99.90;;;;;;5058645;28;19929;-64
2023/05/14 07:43:39;;;;;;;;;;;11.50;99.90;;;;;;5060639;28;19936;-64
2023/05/14 07:46:11;;;;;;;;;;;11.40;99.90;;;;;;5059935;28;19989;-63
2023/05/14 07:48:42;;;;;;;;;;;11.40;99.90;;;;;;5045990;28;19936;-64
2023/05/14 07:51:09;;;;;;;;;;;11.40;99.90;;;;;;5061052;28;19928;-64
2023/05/14 07:53:40;;;;;;;;;;;11.40;99.90;;;;;;5058935;28;19929;-63
2023/05/14 07:56:07;;;;;;;;;;;11.50;99.90;;;;;;5058005;28;19929;-64
2023/05/14 07:58:34;;;;;;;;;;;11.50;99.90;;;;;;5058786;28;19929;-64
2023/05/14 08:01:07;;;;;;;;;;;11.50;99.90;;;;;;5060174;28;19995;-64
2023/05/14 08:03:39;;;;;;;;;;;11.50;99.90;;;;;;5059215;28;19931;-63
2023/05/14 08:06:11;;;;;;;;;;;11.60;99.90;;;;;;5059530;28;20004;-64
2023/05/14 08:08:43;;;;;;;;;;;11.60;99.90;;;;;;5059599;28;20352;-64
2023/05/14 08:11:14;;;;;;;;;;;11.60;99.90;;;;;;5059637;28;20397;-64
2023/05/14 08:13:46;;;;;;;;;;;11.70;99.90;;;;;;5055107;28;19925;-64
2023/05/14 08:16:18;;;;;;;;;;;11.70;99.90;;;;;;5061246;28;19930;-64
2023/05/14 08:18:49;;;;;;;;;;;11.70;99.90;;;;;;5067137;28;20423;-63
2023/05/14 08:21:21;;;;;;;;;;;11.70;99.90;;;;;;5061683;28;19939;-63
2023/05/14 08:23:53;;;;;;;;;;;11.80;99.90;;;;;;5061438;28;19924;-63
2023/05/14 08:26:24;;;;;;;;;;;11.80;99.90;;;;;;5060077;28;19960;-63
2023/05/14 08:28:56;;;;;;;;;;;11.80;99.90;;;;;;5058125;28;19967;-63
2023/05/14 08:31:28;;;;;;;;;;;11.80;99.90;;;;;;5060157;28;20218;-63
2023/05/14 08:33:59;;;;;;;;;;;11.80;99.90;;;;;;5058957;28;19932;-63
2023/05/14 08:36:31;;;;;;;;;;;11.90;99.90;;;;;;5057721;28;19928;-63
2023/05/14 08:38:58;;;;;;;;;;;11.90;99.90;;;;;;5057794;28;20019;-63
2023/05/14 08:41:25;;;;;;;;;;;12.00;99.90;;;;;;5058452;28;20438;-63
2023/05/14 08:43:52;;;;;;;;;;;12.10;99.90;;;;;;5074441;23;19925;-64
2023/05/14 08:46:25;;;;;;;;;;;12.20;99.90;;;;;;5067986;28;19932;-65
2023/05/14 08:49:03;;;;;;;;;;;12.40;99.90;;;;;;5063542;28;19951;-64
2023/05/14 08:51:35;;;;;;;;;;;12.50;99.90;;;;;;5064975;28;19924;-64
2023/05/14 08:54:07;;;;;;;;;;;12.70;99.90;;;;;;5057964;28;20557;-65
2023/05/14 08:56:39;;;;;;;;;;;12.80;99.90;;;;;;5066387;28;19974;-65
2023/05/14 08:59:11;;;;;;;;;;;13.00;99.90;;;;;;5059107;28;19932;-64
2023/05/14 09:01:45;;;;;;;;;;;13.00;99.90;;;;;;5061891;28;19928;-64
2023/05/14 09:04:21;;;;;;;;;;;13.00;99.90;;;;;;5063145;28;19932;-64
2023/05/14 09:06:48;;;;;;;;;;;12.90;99.90;;;;;;5066158;28;19925;-64
2023/05/14 09:09:23;;;;;;;;;;;12.80;99.90;;;;;;5068358;28;19928;-64
2023/05/14 09:11:51;;;;;;;;;;;12.70;99.90;;;;;;5064037;28;19932;-64
2023/05/14 09:14:17;;;;;;;;;;;12.60;99.90;;;;;;5058636;28;20363;-64
2023/05/14 09:16:49;;;;;;;;;;;12.50;99.90;;;;;;5060172;28;19925;-64
2023/05/14 09:19:22;;;;;;;;;;;12.50;99.90;;;;;;5062288;28;19924;-64
2023/05/14 09:21:56;;;;;;;;;;;12.60;99.90;;;;;;5065063;28;20409;-64
2023/05/14 09:24:24;;;;;;;;;;;12.60;99.90;;;;;;5066550;28;20411;-65
2023/05/14 09:26:56;;;;;;;;;;;12.70;99.90;;;;;;5070252;28;19974;-64
2023/05/14 09:29:28;;;;;;;;;;;12.80;99.90;;;;;;5069425;28;19932;-64
2023/05/14 09:31:56;;;;;;;;;;;12.90;99.90;;;;;;5066702;28;19983;-64
2023/05/14 09:34:23;;;;;;;;;;;12.80;99.90;;;;;;5069511;28;19932;-64
2023/05/14 09:37:07;;;;;;;;;;;12.80;99.90;;;;;;5064497;28;19928;-64
2023/05/14 09:39:39;;;;;;;;;;;13.00;99.90;;;;;;5058932;28;20034;-65
2023/05/14 09:42:11;;;;;;;;;;;13.10;99.90;;;;;;5059326;28;20277;-64
2023/05/14 09:44:44;;;;;;;;;;;13.00;99.90;;;;;;5070509;28;19932;-64
2023/05/14 09:47:16;;;;;;;;;;;13.10;99.90;;;;;;5063524;28;20444;-64
2023/05/14 09:49:48;;;;;;;;;;;13.10;99.90;;;;;;5067825;28;19928;-64
2023/05/14 09:52:22;;;;;;;;;;;13.20;99.90;;;;;;5053975;28;19924;-64
2023/05/14 09:54:54;;;;;;;;;;;13.20;99.90;;;;;;5066415;28;19932;-64
2023/05/14 09:57:21;;;;;;;;;;;13.20;99.90;;;;;;5065002;28;19940;-64
2023/05/14 09:59:53;;;;;;;;;;;13.10;99.90;;;;;;5063718;28;19925;-64
2023/05/14 10:02:25;;;;;;;;;;;13.00;99.90;;;;;;5064934;28;19933;-64
2023/05/14 10:04:59;;;;;;;;;;;13.00;99.90;;;;;;5058334;28;19929;-64
2023/05/14 10:07:38;;;;;;;;;;;13.10;99.90;;;;;;5070535;28;20351;-64
2023/05/14 10:10:14;;;;;;;;;;;13.10;99.90;;;;;;5062823;28;19932;-64
2023/05/14 10:13:06;;;;;;;;;;;13.30;99.90;;;;;;5064026;28;20308;-64
2023/05/14 10:15:48;;;;;;;;;;;13.40;99.90;;;;;;5064097;28;20106;-64
2023/05/14 10:18:21;;;;;;;;;;;13.50;99.90;;;;;;5064634;28;19978;-64
2023/05/14 10:20:59;;;;;;;;;;;13.60;99.90;;;;;;5063865;28;19971;-64
2023/05/14 10:23:31;;;;;;;;;;;13.70;99.90;;;;;;5067945;28;19928;-64
2023/05/14 10:26:03;;;;;;;;;;;13.70;99.90;;;;;;5066977;28;19978;-65
2023/05/14 10:28:35;;;;;;;;;;;13.70;99.90;;;;;;5063324;28;19925;-65
2023/05/14 10:31:11;;;;;;;;;;;13.70;99.90;;;;;;5059904;28;20359;-64
2023/05/14 10:33:49;;;;;;;;;;;13.80;99.90;;;;;;5066251;28;19977;-64
2023/05/14 10:36:21;;;;;;;;;;;13.70;99.90;;;;;;5064676;28;20534;-64
2023/05/14 10:38:56;;;;;;;;;;;13.70;99.90;;;;;;5070536;28;19929;-64
2023/05/14 10:41:28;;;;;;;;;;;13.70;99.90;;;;;;5068415;28;19929;-64
2023/05/14 10:44:07;;;;;;;;;;;13.70;99.90;;;;;;5069894;28;19932;-65
2023/05/14 10:46:41;;;;;;;;;;;13.70;99.90;;;;;;5070370;28;19934;-64
2023/05/14 10:49:09;;;;;;;;;;;13.70;99.90;;;;;;5068553;28;20397;-64
2023/05/14 10:51:40;;;;;;;;;;;13.60;99.90;;;;;;5069139;28;19932;-64
2023/05/14 10:54:12;;;;;;;;;;;13.70;99.90;;;;;;5065600;28;19939;-64
2023/05/14 10:56:42;;;;;;;;;;;13.70;99.90;;;;;;5070673;28;19929;-64
2023/05/14 10:59:09;;;;;;;;;;;13.70;99.90;;;;;;5069755;28;19925;-64
2023/05/14 11:01:39;;;;;;;;;;;13.70;99.90;;;;;;5070329;28;19939;-64
2023/05/14 11:04:18;;;;;;;;;;;13.70;99.90;;;;;;5051998;28;19929;-64
2023/05/14 11:06:46;;;;;;;;;;;13.60;99.90;;;;;;5070490;28;19929;-64
2023/05/14 11:09:19;;;;;;;;;;;13.60;99.90;;;;;;5070254;28;20756;-64
2023/05/14 11:11:51;;;;;;;;;;;13.60;99.90;;;;;;5063369;28;20005;-64
2023/05/14 11:14:23;;;;;;;;;;;13.60;99.90;;;;;;5067141;28;19928;-64
2023/05/14 11:16:56;;;;;;;;;;;13.70;99.90;;;;;;5065923;28;20551;-64
2023/05/14 11:19:27;;;;;;;;;;;13.80;99.90;;;;;;5067198;28;19924;-64
2023/05/14 11:22:00;;;;;;;;;;;13.90;99.90;;;;;;5066309;28;19935;-64
2023/05/14 11:24:31;;;;;;;;;;;13.90;99.90;;;;;;5068609;28;20664;-64
2023/05/14 11:26:58;;;;;;;;;;;14.00;99.90;;;;;;5070185;28;19928;-64
2023/05/14 11:29:30;;;;;;;;;;;14.10;99.90;;;;;;5070566;28;19924;-65
2023/05/14 11:31:56;;;;;;;;;;;14.10;99.90;;;;;;5070429;28;19932;-64
2023/05/14 11:34:28;;;;;;;;;;;14.20;99.90;;;;;;5068586;28;19928;-64
2023/05/14 11:37:04;;;;;;;;;;;14.30;99.90;;;;;;5067087;28;20021;-64
2023/05/14 11:39:36;;;;;;;;;;;14.30;99.90;;;;;;5068884;28;19933;-64
2023/05/14 11:42:10;;;;;;;;;;;14.40;99.90;;;;;;5066729;28;19936;-65
2023/05/14 11:44:43;;;;;;;;;;;14.60;99.90;;;;;;5065680;28;19932;-64
2023/05/14 11:47:15;;;;;;;;;;;14.70;99.90;;;;;;5068827;28;19928;-65
2023/05/14 11:49:48;;;;;;;;;;;14.80;99.90;;;;;;5068866;28;20015;-64
2023/05/14 11:52:17;;;;;;;;;;;14.90;99.90;;;;;;5063084;28;20411;-64
2023/05/14 11:54:49;;;;;;;;;;;15.00;99.90;;;;;;5061488;28;19928;-64
2023/05/14 11:57:21;;;;;;;;;;;15.00;99.90;;;;;;5068607;28;19932;-64
2023/05/14 11:59:56;;;;;;;;;;;15.00;99.90;;;;;;5065886;28;19978;-64
2023/05/14 12:02:30;;;;;;;;;;;15.10;99.90;;;;;;5065673;28;19978;-64
2023/05/14 12:04:58;;;;;;;;;;;15.20;99.90;;;;;;5067922;28;19924;-64
2023/05/14 12:07:31;;;;;;;;;;;15.20;99.90;;;;;;5068353;28;19928;-64
2023/05/14 12:10:03;;;;;;;;;;;15.40;99.90;;;;;;5062879;28;19929;-64
2023/05/14 12:12:33;;;;;;;;;;;15.60;99.90;;;;;;5060272;28;19955;-64
2023/05/14 12:15:12;;;;;;;;;;;15.70;99.90;;;;;;5060454;28;20487;-64
2023/05/14 12:17:50;;;;;;;;;;;15.90;99.90;;;;;;5062798;28;19990;-64
2023/05/14 12:20:17;;;;;;;;;;;16.10;99.90;;;;;;5061103;28;19924;-64
2023/05/14 12:22:48;;;;;;;;;;;16.20;99.90;;;;;;5066072;28;20416;-65
2023/05/14 12:25:20;;;;;;;;;;;16.30;99.90;;;;;;5065970;28;19928;-65
2023/05/14 12:27:52;;;;;;;;;;;16.50;99.90;;;;;;5067720;28;20584;-64
2023/05/14 12:30:23;;;;;;;;;;;16.60;99.90;;;;;;5061618;28;20320;-65
2023/05/14 12:32:55;;;;;;;;;;;16.70;99.90;;;;;;5058294;28;19936;-64
2023/05/14 12:35:27;;;;;;;;;;;16.70;99.90;;;;;;5052752;28;19929;-64
2023/05/14 12:37:53;;;;;;;;;;;16.80;99.90;;;;;;5065302;28;19936;-64
2023/05/14 12:40:25;;;;;;;;;;;16.90;99.90;;;;;;5057523;28;19933;-65
2023/05/14 12:42:56;;;;;;;;;;;16.90;99.90;;;;;;5056169;28;19928;-65
2023/05/14 12:45:29;;;;;;;;;;;16.90;99.90;;;;;;5058297;28;19929;-65
2023/05/14 12:48:01;;;;;;;;;;;17.10;99.90;;;;;;5065344;28;20584;-65
2023/05/14 12:50:28;;;;;;;;;;;17.40;99.90;;;;;;5061986;28;19936;-65
2023/05/14 12:52:59;;;;;;;;;;;17.50;99.90;;;;;;5074702;28;19933;-65
2023/05/14 12:55:33;;;;;;;;;;;17.70;99.90;;;;;;5058929;28;20005;-65
2023/05/14 12:58:05;;;;;;;;;;;17.80;99.90;;;;;;5056975;28;20333;-65
2023/05/14 13:00:36;;;;;;;;;;;18.00;99.90;;;;;;5055600;28;19925;-64
2023/05/14 13:03:08;;;;;;;;;;;18.30;99.90;;;;;;5056876;28;20403;-65
2023/05/14 13:05:39;;;;;;;;;;;18.40;99.90;;;;;;5059903;28;20546;-64
2023/05/14 13:08:13;;;;;;;;;;;18.30;99.90;;;;;;5063904;28;19990;-65
2023/05/14 13:10:45;;;;;;;;;;;18.40;99.90;;;;;;5065402;28;20629;-64
2023/05/14 13:13:17;;;;;;;;;;;18.60;99.90;;;;;;5061504;28;19925;-65
2023/05/14 13:15:45;;;;;;;;;;;18.70;99.90;;;;;;5059095;28;19935;-65
2023/05/14 13:18:17;;;;;;;;;;;18.70;99.90;;;;;;5057432;28;19947;-65
2023/05/14 13:20:48;;;;;;;;;;;18.60;99.90;;;;;;5066042;28;19931;-65
2023/05/14 13:23:20;;;;;;;;;;;18.50;99.90;;;;;;5052795;28;19932;-65
2023/05/14 13:25:47;;;;;;;;;;;18.40;99.90;;;;;;5053612;28;19932;-65
2023/05/14 13:28:18;;;;;;;;;;;18.30;99.90;;;;;;5059123;28;20324;-65
2023/05/14 13:31:01;;;;;;;;;;;18.00;99.90;;;;;;5066770;28;20392;-65
2023/05/14 13:33:34;;;;;;;;;;;17.80;99.90;;;;;;5063603;28;19978;-65
2023/05/14 13:36:07;;;;;;;;;;;17.50;99.90;;;;;;5062373;28;20005;-65
2023/05/14 13:38:34;;;;;;;;;;;17.40;99.90;;;;;;5058624;28;19975;-65
2023/05/14 13:41:06;;;;;;;;;;;17.30;99.90;;;;;;5057920;28;19925;-64
2023/05/14 13:43:38;;;;;;;;;;;17.10;99.90;;;;;;5060144;28;20006;-65
2023/05/14 13:46:09;;;;;;;;;;;17.00;99.90;;;;;;5054404;28;19978;-65
2023/05/14 13:48:41;;;;;;;;;;;16.90;99.90;;;;;;5051823;28;19929;-64
2023/05/14 13:51:13;;;;;;;;;;;16.80;99.90;;;;;;5058062;28;19929;-65
2023/05/14 13:53:44;;;;;;;;;;;16.80;99.90;;;;;;5069370;28;20289;-64
2023/05/14 13:56:11;;;;;;;;;;;16.70;99.90;;;;;;5068066;28;20412;-64
2023/05/14 13:58:43;;;;;;;;;;;16.60;99.90;;;;;;5065359;28;19979;-64
2023/05/14 14:01:09;;;;;;;;;;;16.60;99.90;;;;;;5064265;28;20304;-64
2023/05/14 14:03:41;;;;;;;;;;;16.60;99.90;;;;;;5063690;28;19983;-64
2023/05/14 14:06:08;;;;;;;;;;;16.60;99.90;;;;;;5059892;28;19926;-64
2023/05/14 14:08:39;;;;;;;;;;;16.60;99.90;;;;;;5059098;28;19929;-64
2023/05/14 14:11:12;;;;;;;;;;;16.70;99.90;;;;;;5072354;28;19924;-65
2023/05/14 14:13:44;;;;;;;;;;;16.80;99.90;;;;;;5069287;28;19929;-64
2023/05/14 14:16:10;;;;;;;;;;;16.90;99.90;;;;;;5069788;28;19924;-64
2023/05/14 14:18:42;;;;;;;;;;;16.90;99.90;;;;;;5066013;28;19982;-64
2023/05/14 14:21:16;;;;;;;;;;;17.00;99.90;;;;;;5069095;28;19933;-64
2023/05/14 14:23:48;;;;;;;;;;;17.20;99.90;;;;;;5066055;28;19977;-64
2023/05/14 14:26:20;;;;;;;;;;;17.60;99.90;;;;;;5065555;28;19978;-64
2023/05/14 14:28:51;;;;;;;;;;;18.00;99.90;;;;;;5068206;28;19933;-65
2023/05/14 14:31:23;;;;;;;;;;;18.60;99.90;;;;;;5068233;28;19924;-65
2023/05/14 14:33:55;;;;;;;;;;;19.20;99.90;;;;;;5066650;28;19924;-65
2023/05/14 14:36:27;;;;;;;;;;;19.70;99.90;;;;;;5061572;28;20343;-64
2023/05/14 14:38:59;;;;;;;;;;;19.70;99.90;;;;;;5070964;28;20285;-65
2023/05/14 14:41:31;;;;;;;;;;;19.50;99.90;;;;;;5064708;28;19931;-66